<?xml version="1.0" encoding="UTF-8" standalone="no" ?>
<gpx xmlns="http://www.topografix.com/GPX/1/1" xmlns:xsi="http://www.w3.org/2001/XMLSchema-instance" xsi:schemaLocation="http://www.topografix.com/GPX/1/1 http://www.topografix.com/GPX/1/1/gpx.xsd" version="1.1" creator="VisuGPX - https://www.visugpx.com">
  <metadata>
    <name>Sederon - J1 matin</name>
    <desc><![CDATA[Sederon - J1 matin. xxxxxxxxxxxxxxxxxxxxxxxxxxxxxxxxxxxxxxxxxxxxxxxxxxxxxxxxxxxxxxxxx]]></desc>
  </metadata>
  <trk>
    <name><![CDATA[9257052-Sederon - J1 matin]]></name>
    <trkseg>
      <trkpt lat="44.22914" lon="5.50488">
        <ele>832</ele>
        <time>2018-10-29T10:55:43Z</time>
      </trkpt>
      <trkpt lat="44.23045" lon="5.50379">
        <ele>835</ele>
        <time>2018-10-29T10:56:43Z</time>
      </trkpt>
      <trkpt lat="44.23067" lon="5.50227">
        <ele>825</ele>
        <time>2018-10-29T10:57:43Z</time>
      </trkpt>
      <trkpt lat="44.23254" lon="5.50136">
        <ele>830</ele>
        <time>2018-10-29T10:58:43Z</time>
      </trkpt>
      <trkpt lat="44.23593" lon="5.50112">
        <ele>838</ele>
        <time>2018-10-29T10:59:43Z</time>
      </trkpt>
      <trkpt lat="44.23915" lon="5.50239">
        <ele>842</ele>
        <time>2018-10-29T11:00:43Z</time>
      </trkpt>
      <trkpt lat="44.24162" lon="5.50421">
        <ele>849</ele>
        <time>2018-10-29T11:01:43Z</time>
      </trkpt>
      <trkpt lat="44.24167" lon="5.50852">
        <ele>868</ele>
        <time>2018-10-29T11:02:43Z</time>
      </trkpt>
      <trkpt lat="44.24276" lon="5.50791">
        <ele>869</ele>
        <time>2018-10-29T11:03:43Z</time>
      </trkpt>
      <trkpt lat="44.24241" lon="5.50967">
        <ele>879</ele>
        <time>2018-10-29T11:04:43Z</time>
      </trkpt>
      <trkpt lat="44.24336" lon="5.51065">
        <ele>898</ele>
        <time>2018-10-29T11:05:43Z</time>
      </trkpt>
      <trkpt lat="44.24341" lon="5.51156">
        <ele>900</ele>
        <time>2018-10-29T11:06:43Z</time>
      </trkpt>
      <trkpt lat="44.24315" lon="5.51247">
        <ele>897</ele>
        <time>2018-10-29T11:07:43Z</time>
      </trkpt>
      <trkpt lat="44.24223" lon="5.51623">
        <ele>898</ele>
        <time>2018-10-29T11:08:43Z</time>
      </trkpt>
      <trkpt lat="44.24232" lon="5.51738">
        <ele>898</ele>
        <time>2018-10-29T11:09:43Z</time>
      </trkpt>
      <trkpt lat="44.24128" lon="5.51762">
        <ele>909</ele>
        <time>2018-10-29T11:10:43Z</time>
      </trkpt>
      <trkpt lat="44.24028" lon="5.51896">
        <ele>939</ele>
        <time>2018-10-29T11:11:43Z</time>
      </trkpt>
      <trkpt lat="44.24084" lon="5.52023">
        <ele>938</ele>
        <time>2018-10-29T11:12:43Z</time>
      </trkpt>
      <trkpt lat="44.24119" lon="5.52121">
        <ele>931</ele>
        <time>2018-10-29T11:13:43Z</time>
      </trkpt>
      <trkpt lat="44.24039" lon="5.52167">
        <ele>946</ele>
        <time>2018-10-29T11:14:43Z</time>
      </trkpt>
      <trkpt lat="44.24094" lon="5.52361">
        <ele>947</ele>
        <time>2018-10-29T11:15:43Z</time>
      </trkpt>
      <trkpt lat="44.24076" lon="5.52616">
        <ele>954</ele>
        <time>2018-10-29T11:16:43Z</time>
      </trkpt>
      <trkpt lat="44.23995" lon="5.52749">
        <ele>936</ele>
        <time>2018-10-29T11:17:43Z</time>
      </trkpt>
      <trkpt lat="44.23882" lon="5.52841">
        <ele>925</ele>
        <time>2018-10-29T11:18:43Z</time>
      </trkpt>
      <trkpt lat="44.23809" lon="5.5282">
        <ele>939</ele>
        <time>2018-10-29T11:19:43Z</time>
      </trkpt>
      <trkpt lat="44.23743" lon="5.5304">
        <ele>920</ele>
        <time>2018-10-29T11:20:43Z</time>
      </trkpt>
      <trkpt lat="44.2367" lon="5.5328">
        <ele>892</ele>
        <time>2018-10-29T11:21:43Z</time>
      </trkpt>
      <trkpt lat="44.23513" lon="5.53443">
        <ele>887</ele>
        <time>2018-10-29T11:22:43Z</time>
      </trkpt>
      <trkpt lat="44.23334" lon="5.53713">
        <ele>857</ele>
        <time>2018-10-29T11:23:43Z</time>
      </trkpt>
      <trkpt lat="44.23304" lon="5.53877">
        <ele>838</ele>
        <time>2018-10-29T11:24:43Z</time>
      </trkpt>
      <trkpt lat="44.23224" lon="5.54004">
        <ele>822</ele>
        <time>2018-10-29T11:25:43Z</time>
      </trkpt>
      <trkpt lat="44.23374" lon="5.54117">
        <ele>811</ele>
        <time>2018-10-29T11:26:43Z</time>
      </trkpt>
      <trkpt lat="44.2337" lon="5.54219">
        <ele>806</ele>
        <time>2018-10-29T11:27:43Z</time>
      </trkpt>
      <trkpt lat="44.23487" lon="5.54178">
        <ele>812</ele>
        <time>2018-10-29T11:28:43Z</time>
      </trkpt>
      <trkpt lat="44.23516" lon="5.54265">
        <ele>812</ele>
        <time>2018-10-29T11:29:43Z</time>
      </trkpt>
      <trkpt lat="44.23717" lon="5.54305">
        <ele>826</ele>
        <time>2018-10-29T11:30:43Z</time>
      </trkpt>
      <trkpt lat="44.23783" lon="5.54566">
        <ele>830</ele>
        <time>2018-10-29T11:31:43Z</time>
      </trkpt>
      <trkpt lat="44.23824" lon="5.54724">
        <ele>828</ele>
        <time>2018-10-29T11:32:43Z</time>
      </trkpt>
      <trkpt lat="44.23988" lon="5.54826">
        <ele>840</ele>
        <time>2018-10-29T11:33:43Z</time>
      </trkpt>
      <trkpt lat="44.24006" lon="5.54979">
        <ele>839</ele>
        <time>2018-10-29T11:34:43Z</time>
      </trkpt>
      <trkpt lat="44.23995" lon="5.55137">
        <ele>839</ele>
        <time>2018-10-29T11:35:43Z</time>
      </trkpt>
      <trkpt lat="44.24058" lon="5.5528">
        <ele>845</ele>
        <time>2018-10-29T11:36:43Z</time>
      </trkpt>
      <trkpt lat="44.24047" lon="5.55341">
        <ele>845</ele>
        <time>2018-10-29T11:37:43Z</time>
      </trkpt>
      <trkpt lat="44.24109" lon="5.55398">
        <ele>849</ele>
        <time>2018-10-29T11:38:43Z</time>
      </trkpt>
      <trkpt lat="44.24094" lon="5.55591">
        <ele>858</ele>
        <time>2018-10-29T11:39:43Z</time>
      </trkpt>
      <trkpt lat="44.23977" lon="5.5551">
        <ele>853</ele>
        <time>2018-10-29T11:40:43Z</time>
      </trkpt>
      <trkpt lat="44.23816" lon="5.56428">
        <ele>895</ele>
        <time>2018-10-29T11:41:43Z</time>
      </trkpt>
      <trkpt lat="44.24028" lon="5.56663">
        <ele>934</ele>
        <time>2018-10-29T11:42:43Z</time>
      </trkpt>
      <trkpt lat="44.24083" lon="5.56944">
        <ele>923</ele>
        <time>2018-10-29T11:43:43Z</time>
      </trkpt>
      <trkpt lat="44.24143" lon="5.5694">
        <ele>935</ele>
        <time>2018-10-29T11:44:43Z</time>
      </trkpt>
      <trkpt lat="44.24145" lon="5.5708">
        <ele>934</ele>
        <time>2018-10-29T11:45:43Z</time>
      </trkpt>
      <trkpt lat="44.24136" lon="5.57183">
        <ele>937</ele>
        <time>2018-10-29T11:46:43Z</time>
      </trkpt>
      <trkpt lat="44.24105" lon="5.57244">
        <ele>935</ele>
        <time>2018-10-29T11:47:43Z</time>
      </trkpt>
      <trkpt lat="44.24103" lon="5.57366">
        <ele>953</ele>
        <time>2018-10-29T11:48:43Z</time>
      </trkpt>
      <trkpt lat="44.24131" lon="5.57448">
        <ele>965</ele>
        <time>2018-10-29T11:49:43Z</time>
      </trkpt>
      <trkpt lat="44.24059" lon="5.57438">
        <ele>962</ele>
        <time>2018-10-29T11:50:43Z</time>
      </trkpt>
      <trkpt lat="44.24017" lon="5.5755">
        <ele>969</ele>
        <time>2018-10-29T11:51:43Z</time>
      </trkpt>
      <trkpt lat="44.24074" lon="5.5768">
        <ele>981</ele>
        <time>2018-10-29T11:52:43Z</time>
      </trkpt>
      <trkpt lat="44.2411" lon="5.57671">
        <ele>989</ele>
        <time>2018-10-29T11:53:43Z</time>
      </trkpt>
      <trkpt lat="44.24141" lon="5.5773">
        <ele>989</ele>
        <time>2018-10-29T11:54:43Z</time>
      </trkpt>
      <trkpt lat="44.24105" lon="5.57792">
        <ele>975</ele>
        <time>2018-10-29T11:55:43Z</time>
      </trkpt>
      <trkpt lat="44.24113" lon="5.57873">
        <ele>967</ele>
        <time>2018-10-29T11:56:43Z</time>
      </trkpt>
      <trkpt lat="44.241" lon="5.57896">
        <ele>962</ele>
        <time>2018-10-29T11:57:43Z</time>
      </trkpt>
      <trkpt lat="44.24126" lon="5.57983">
        <ele>958</ele>
        <time>2018-10-29T11:58:43Z</time>
      </trkpt>
      <trkpt lat="44.2411" lon="5.58025">
        <ele>952</ele>
        <time>2018-10-29T11:59:43Z</time>
      </trkpt>
      <trkpt lat="44.24073" lon="5.57981">
        <ele>948</ele>
        <time>2018-10-29T12:00:43Z</time>
      </trkpt>
      <trkpt lat="44.24055" lon="5.57998">
        <ele>943</ele>
        <time>2018-10-29T12:01:43Z</time>
      </trkpt>
      <trkpt lat="44.24026" lon="5.58113">
        <ele>927</ele>
        <time>2018-10-29T12:02:43Z</time>
      </trkpt>
      <trkpt lat="44.23949" lon="5.5812">
        <ele>913</ele>
        <time>2018-10-29T12:03:43Z</time>
      </trkpt>
      <trkpt lat="44.23927" lon="5.58081">
        <ele>913</ele>
        <time>2018-10-29T12:04:43Z</time>
      </trkpt>
      <trkpt lat="44.23919" lon="5.58205">
        <ele>898</ele>
        <time>2018-10-29T12:05:43Z</time>
      </trkpt>
      <trkpt lat="44.2395" lon="5.58239">
        <ele>900</ele>
        <time>2018-10-29T12:06:43Z</time>
      </trkpt>
      <trkpt lat="44.23984" lon="5.58263">
        <ele>910</ele>
        <time>2018-10-29T12:07:43Z</time>
      </trkpt>
      <trkpt lat="44.23892" lon="5.58416">
        <ele>888</ele>
        <time>2018-10-29T12:08:43Z</time>
      </trkpt>
      <trkpt lat="44.23902" lon="5.58517">
        <ele>888</ele>
        <time>2018-10-29T12:09:43Z</time>
      </trkpt>
      <trkpt lat="44.23884" lon="5.58681">
        <ele>885</ele>
        <time>2018-10-29T12:10:43Z</time>
      </trkpt>
      <trkpt lat="44.23884" lon="5.58903">
        <ele>872</ele>
        <time>2018-10-29T12:11:43Z</time>
      </trkpt>
      <trkpt lat="44.23891" lon="5.58984">
        <ele>875</ele>
        <time>2018-10-29T12:12:43Z</time>
      </trkpt>
      <trkpt lat="44.23854" lon="5.59053">
        <ele>871</ele>
        <time>2018-10-29T12:13:43Z</time>
      </trkpt>
      <trkpt lat="44.23807" lon="5.5919">
        <ele>872</ele>
        <time>2018-10-29T12:14:43Z</time>
      </trkpt>
      <trkpt lat="44.23796" lon="5.59246">
        <ele>874</ele>
        <time>2018-10-29T12:15:43Z</time>
      </trkpt>
      <trkpt lat="44.23796" lon="5.59349">
        <ele>868</ele>
        <time>2018-10-29T12:16:43Z</time>
      </trkpt>
      <trkpt lat="44.23821" lon="5.59544">
        <ele>860</ele>
        <time>2018-10-29T12:17:43Z</time>
      </trkpt>
      <trkpt lat="44.23832" lon="5.59638">
        <ele>856</ele>
        <time>2018-10-29T12:18:43Z</time>
      </trkpt>
      <trkpt lat="44.23919" lon="5.59704">
        <ele>856</ele>
        <time>2018-10-29T12:19:43Z</time>
      </trkpt>
      <trkpt lat="44.24025" lon="5.59768">
        <ele>843</ele>
        <time>2018-10-29T12:20:43Z</time>
      </trkpt>
      <trkpt lat="44.24149" lon="5.59741">
        <ele>843</ele>
        <time>2018-10-29T12:21:43Z</time>
      </trkpt>
      <trkpt lat="44.2426" lon="5.59746">
        <ele>837</ele>
        <time>2018-10-29T12:22:43Z</time>
      </trkpt>
      <trkpt lat="44.24243" lon="5.59827">
        <ele>831</ele>
        <time>2018-10-29T12:23:43Z</time>
      </trkpt>
      <trkpt lat="44.24218" lon="5.59907">
        <ele>824</ele>
        <time>2018-10-29T12:24:43Z</time>
      </trkpt>
      <trkpt lat="44.24251" lon="5.59991">
        <ele>813</ele>
        <time>2018-10-29T12:25:43Z</time>
      </trkpt>
      <trkpt lat="44.24273" lon="5.60029">
        <ele>816</ele>
        <time>2018-10-29T12:26:43Z</time>
      </trkpt>
      <trkpt lat="44.24371" lon="5.59953">
        <ele>829</ele>
        <time>2018-10-29T12:27:43Z</time>
      </trkpt>
      <trkpt lat="44.24479" lon="5.59872">
        <ele>841</ele>
        <time>2018-10-29T12:28:43Z</time>
      </trkpt>
      <trkpt lat="44.24539" lon="5.59813">
        <ele>845</ele>
        <time>2018-10-29T12:29:43Z</time>
      </trkpt>
      <trkpt lat="44.24551" lon="5.59739">
        <ele>844</ele>
        <time>2018-10-29T12:30:43Z</time>
      </trkpt>
      <trkpt lat="44.24515" lon="5.59695">
        <ele>846</ele>
        <time>2018-10-29T12:31:43Z</time>
      </trkpt>
      <trkpt lat="44.24601" lon="5.59739">
        <ele>850</ele>
        <time>2018-10-29T12:32:43Z</time>
      </trkpt>
      <trkpt lat="44.24649" lon="5.5969">
        <ele>864</ele>
        <time>2018-10-29T12:33:43Z</time>
      </trkpt>
      <trkpt lat="44.24577" lon="5.59652">
        <ele>857</ele>
        <time>2018-10-29T12:34:43Z</time>
      </trkpt>
      <trkpt lat="44.24676" lon="5.59638">
        <ele>873</ele>
        <time>2018-10-29T12:35:43Z</time>
      </trkpt>
      <trkpt lat="44.24718" lon="5.59686">
        <ele>877</ele>
        <time>2018-10-29T12:36:43Z</time>
      </trkpt>
      <trkpt lat="44.24719" lon="5.5965">
        <ele>879</ele>
        <time>2018-10-29T12:37:43Z</time>
      </trkpt>
      <trkpt lat="44.24757" lon="5.59589">
        <ele>887</ele>
        <time>2018-10-29T12:38:43Z</time>
      </trkpt>
      <trkpt lat="44.24754" lon="5.59519">
        <ele>890</ele>
        <time>2018-10-29T12:39:43Z</time>
      </trkpt>
      <trkpt lat="44.24717" lon="5.5949">
        <ele>887</ele>
        <time>2018-10-29T12:40:43Z</time>
      </trkpt>
      <trkpt lat="44.24801" lon="5.59483">
        <ele>902</ele>
        <time>2018-10-29T12:41:43Z</time>
      </trkpt>
      <trkpt lat="44.24799" lon="5.59594">
        <ele>895</ele>
        <time>2018-10-29T12:42:43Z</time>
      </trkpt>
      <trkpt lat="44.24821" lon="5.59607">
        <ele>898</ele>
        <time>2018-10-29T12:43:43Z</time>
      </trkpt>
      <trkpt lat="44.24837" lon="5.59553">
        <ele>905</ele>
        <time>2018-10-29T12:44:43Z</time>
      </trkpt>
      <trkpt lat="44.24887" lon="5.59596">
        <ele>909</ele>
        <time>2018-10-29T12:45:43Z</time>
      </trkpt>
      <trkpt lat="44.24938" lon="5.59636">
        <ele>912</ele>
        <time>2018-10-29T12:46:43Z</time>
      </trkpt>
      <trkpt lat="44.24976" lon="5.59632">
        <ele>918</ele>
        <time>2018-10-29T12:47:43Z</time>
      </trkpt>
      <trkpt lat="44.24929" lon="5.59619">
        <ele>912</ele>
        <time>2018-10-29T12:48:43Z</time>
      </trkpt>
      <trkpt lat="44.24894" lon="5.59583">
        <ele>912</ele>
        <time>2018-10-29T12:49:43Z</time>
      </trkpt>
      <trkpt lat="44.249" lon="5.59554">
        <ele>915</ele>
        <time>2018-10-29T12:50:43Z</time>
      </trkpt>
      <trkpt lat="44.24954" lon="5.59531">
        <ele>923</ele>
        <time>2018-10-29T12:51:43Z</time>
      </trkpt>
      <trkpt lat="44.24962" lon="5.59416">
        <ele>931</ele>
        <time>2018-10-29T12:52:43Z</time>
      </trkpt>
      <trkpt lat="44.24936" lon="5.5939">
        <ele>932</ele>
        <time>2018-10-29T12:53:43Z</time>
      </trkpt>
      <trkpt lat="44.24935" lon="5.59307">
        <ele>943</ele>
        <time>2018-10-29T12:54:43Z</time>
      </trkpt>
    </trkseg>
  </trk>
</gpx>